Time;durP1;ratioP1;P1;durP2;ratioP2;P2;SDS_P1;SDS_P2;PMS_P1;PMS_P2;Temp;Humidity;BMP_temperature;BMP_pressure;BME280_temperature;BME280_humidity;BME280_pressure;Samples;Min_cycle;Max_cycle;Signal;HPM_P1;HPM_P2
2021/08/17 00:00:09;;;;;;;10.27;7.57;;;12.50;99.90;;;;;;5053661;28;20851;-61
2021/08/17 00:02:36;;;;;;;11.93;7.00;;;12.50;99.90;;;;;;5053366;28;20448;-62
2021/08/17 00:05:03;;;;;;;8.93;7.47;;;12.50;99.90;;;;;;5053414;28;20483;-61
2021/08/17 00:07:30;;;;;;;8.37;7.10;;;12.50;99.90;;;;;;5053275;28;20456;-62
2021/08/17 00:09:58;;;;;;;12.80;8.90;;;12.50;99.90;;;;;;5053481;28;20440;-62
2021/08/17 00:12:25;;;;;;;12.97;10.93;;;12.40;99.90;;;;;;5053165;28;20449;-62
2021/08/17 00:14:52;;;;;;;10.50;9.10;;;12.40;99.90;;;;;;5053067;28;21034;-63
2021/08/17 00:17:19;;;;;;;12.87;8.70;;;12.30;99.90;;;;;;5053410;28;20561;-62
2021/08/17 00:19:46;;;;;;;10.70;9.03;;;12.30;99.90;;;;;;5053259;28;20452;-63
2021/08/17 00:22:13;;;;;;;14.60;9.27;;;12.30;99.90;;;;;;5052859;28;20984;-62
2021/08/17 00:24:40;;;;;;;14.53;7.67;;;12.30;99.90;;;;;;5053009;28;20464;-61
2021/08/17 00:27:08;;;;;;;14.57;8.20;;;12.20;99.90;;;;;;5052950;28;20518;-61
2021/08/17 00:29:35;;;;;;;20.50;10.50;;;12.30;99.90;;;;;;5053076;28;20945;-61
2021/08/17 00:32:01;;;;;;;11.73;8.10;;;12.20;99.90;;;;;;5052717;28;20958;-61
2021/08/17 00:34:28;;;;;;;19.07;10.00;;;12.20;99.90;;;;;;5052800;28;20472;-62
2021/08/17 00:36:56;;;;;;;15.03;9.30;;;12.20;99.90;;;;;;5052960;28;20449;-63
2021/08/17 00:39:23;;;;;;;17.47;11.10;;;12.20;99.90;;;;;;5052904;28;20448;-63
2021/08/17 00:41:50;;;;;;;24.70;12.23;;;12.10;99.90;;;;;;5052665;28;20451;-62
2021/08/17 00:44:23;;;;;;;20.23;10.50;;;12.10;99.90;;;;;;5052609;28;20475;-60
2021/08/17 00:46:50;;;;;;;19.23;10.97;;;12.10;99.90;;;;;;5052635;28;20483;-62
2021/08/17 00:49:17;;;;;;;19.87;10.27;;;12.10;99.90;;;;;;5052428;28;20444;-61
2021/08/17 00:51:44;;;;;;;21.03;12.03;;;12.10;99.90;;;;;;5052538;28;20452;-62
2021/08/17 00:54:11;;;;;;;23.00;11.43;;;12.10;99.90;;;;;;5052676;28;20464;-62
2021/08/17 00:56:39;;;;;;;20.87;11.40;;;12.00;99.90;;;;;;5052520;28;20443;-61
2021/08/17 00:59:06;;;;;;;31.33;15.20;;;12.00;99.90;;;;;;5052472;28;20447;-61
2021/08/17 01:01:34;;;;;;;18.57;11.30;;;12.00;99.90;;;;;;5052365;28;20444;-61
2021/08/17 01:04:02;;;;;;;27.67;12.40;;;12.00;99.90;;;;;;5051973;28;20468;-62
2021/08/17 01:06:30;;;;;;;26.30;14.47;;;12.00;99.90;;;;;;5052171;28;20502;-62
2021/08/17 01:08:57;;;;;;;38.07;16.13;;;12.00;99.90;;;;;;5052328;28;20447;-62
2021/08/17 01:11:23;;;;;;;21.47;11.77;;;12.00;99.90;;;;;;5051809;28;20863;-61
2021/08/17 01:13:51;;;;;;;32.00;14.57;;;12.00;99.90;;;;;;5052172;28;20475;-63
2021/08/17 01:16:19;;;;;;;31.60;15.83;;;11.90;99.90;;;;;;5051989;28;20450;-63
2021/08/17 01:18:47;;;;;;;31.03;15.63;;;12.00;99.90;;;;;;5052175;28;20448;-62
2021/08/17 01:21:15;;;;;;;30.87;15.90;;;12.00;99.90;;;;;;5051870;28;20448;-63
2021/08/17 01:23:42;;;;;;;38.30;18.60;;;12.00;99.90;;;;;;5051946;28;20475;-62
2021/08/17 01:26:10;;;;;;;38.90;17.10;;;12.00;99.90;;;;;;5051883;28;20884;-62
2021/08/17 01:28:37;;;;;;;31.20;15.60;;;12.00;99.90;;;;;;5052019;28;20452;-63
2021/08/17 01:31:06;;;;;;;40.77;20.60;;;12.00;99.90;;;;;;5051424;28;20444;-63
2021/08/17 01:33:33;;;;;;;37.10;16.27;;;12.00;99.90;;;;;;5051816;28;20439;-62
2021/08/17 01:36:01;;;;;;;43.30;17.70;;;12.10;99.90;;;;;;5051933;28;21147;-63
2021/08/17 01:38:28;;;;;;;48.73;20.63;;;12.10;99.90;;;;;;5051754;28;20733;-63
2021/08/17 01:40:55;;;;;;;44.23;18.97;;;12.10;99.90;;;;;;5051630;28;20452;-63
2021/08/17 01:43:23;;;;;;;44.17;21.60;;;12.10;99.90;;;;;;5051759;28;20448;-63
2021/08/17 01:45:55;;;;;;;47.77;22.07;;;12.10;99.90;;;;;;5051400;28;20482;-61
2021/08/17 01:48:25;;;;;;;45.40;21.43;;;12.20;99.90;;;;;;5052108;28;20833;-62
2021/08/17 01:50:51;;;;;;;46.13;23.23;;;12.20;99.90;;;;;;5051699;28;20930;-61
2021/08/17 01:53:18;;;;;;;50.27;21.83;;;12.20;99.90;;;;;;5051457;28;20447;-63
2021/08/17 01:55:45;;;;;;;53.97;24.07;;;12.20;99.90;;;;;;5051685;28;20452;-63
2021/08/17 01:58:11;;;;;;;53.80;24.00;;;12.20;99.90;;;;;;5051444;28;20451;-63
2021/08/17 02:00:39;;;;;;;57.90;24.97;;;12.20;99.90;;;;;;5051202;28;20775;-63
2021/08/17 02:03:06;;;;;;;49.97;22.97;;;12.20;99.90;;;;;;5051438;28;20846;-63
2021/08/17 02:05:33;;;;;;;56.03;25.07;;;12.20;99.90;;;;;;5051438;28;20506;-63
2021/08/17 02:08:02;;;;;;;55.83;22.27;;;12.20;99.90;;;;;;5051457;28;21147;-62
2021/08/17 02:10:29;;;;;;;48.73;25.67;;;12.20;99.90;;;;;;5051414;28;20944;-63
2021/08/17 02:12:56;;;;;;;66.07;28.40;;;12.20;99.90;;;;;;5051047;28;20452;-62
2021/08/17 02:15:22;;;;;;;46.97;24.13;;;12.20;99.90;;;;;;5050734;28;20472;-62
2021/08/17 02:17:50;;;;;;;57.60;24.80;;;12.20;99.90;;;;;;5051416;28;20448;-62
2021/08/17 02:20:17;;;;;;;56.00;24.00;;;12.20;99.90;;;;;;5051409;28;20444;-62
2021/08/17 02:22:44;;;;;;;60.27;27.53;;;12.30;99.90;;;;;;5051298;28;20490;-63
2021/08/17 02:25:11;;;;;;;58.77;26.93;;;12.30;99.90;;;;;;5051210;28;20553;-63
2021/08/17 02:27:38;;;;;;;62.77;30.13;;;12.30;99.90;;;;;;5050985;28;20506;-63
2021/08/17 02:30:07;;;;;;;59.73;27.53;;;12.30;99.90;;;;;;5050995;28;20498;-62
2021/08/17 02:32:34;;;;;;;54.17;25.83;;;12.30;99.90;;;;;;5051070;28;20454;-62
2021/08/17 02:35:02;;;;;;;52.80;23.57;;;12.30;99.90;;;;;;5051215;28;20807;-62
2021/08/17 02:37:29;;;;;;;62.17;25.27;;;12.20;99.90;;;;;;5051238;28;20436;-61
2021/08/17 02:39:56;;;;;;;63.03;25.70;;;12.20;99.90;;;;;;5050681;28;20459;-61
2021/08/17 02:42:22;;;;;;;62.37;23.80;;;12.30;99.90;;;;;;5050585;28;20523;-62
2021/08/17 02:44:49;;;;;;;52.30;26.37;;;12.20;99.90;;;;;;5050871;28;21018;-62
2021/08/17 02:47:16;;;;;;;52.80;27.43;;;12.20;99.90;;;;;;5051028;28;20992;-63
2021/08/17 02:49:43;;;;;;;52.50;23.87;;;12.20;99.90;;;;;;5051207;28;20956;-62
2021/08/17 02:52:11;;;;;;;55.60;23.80;;;12.20;99.90;;;;;;5051090;28;20535;-62
2021/08/17 02:54:39;;;;;;;58.67;24.70;;;12.20;99.90;;;;;;5050682;28;20464;-61
2021/08/17 02:57:07;;;;;;;71.00;28.53;;;12.20;99.90;;;;;;5051037;28;20448;-62
2021/08/17 02:59:34;;;;;;;70.93;25.43;;;12.20;99.90;;;;;;5051011;28;20535;-61
2021/08/17 03:02:02;;;;;;;66.67;23.97;;;12.20;99.90;;;;;;5050744;28;20444;-61
2021/08/17 03:04:29;;;;;;;54.00;23.50;;;12.20;99.90;;;;;;5050894;28;20479;-62
2021/08/17 03:06:56;;;;;;;60.07;26.83;;;12.20;99.90;;;;;;5050726;28;20484;-61
2021/08/17 03:09:24;;;;;;;65.50;27.47;;;12.20;99.90;;;;;;5050815;28;20450;-62
2021/08/17 03:11:51;;;;;;;68.37;26.27;;;12.20;99.90;;;;;;5051862;28;20448;-63
2021/08/17 03:14:18;;;;;;;59.20;25.13;;;12.20;99.90;;;;;;5054156;28;20480;-61
2021/08/17 03:16:44;;;;;;;52.30;25.10;;;12.20;99.90;;;;;;5054316;28;20444;-62
2021/08/17 03:19:11;;;;;;;61.43;26.90;;;12.20;99.90;;;;;;5054361;28;20448;-62
2021/08/17 03:21:38;;;;;;;70.70;26.40;;;12.10;99.90;;;;;;5053895;28;20502;-61
2021/08/17 03:24:05;;;;;;;54.10;24.90;;;12.10;99.90;;;;;;5053870;28;20464;-62
2021/08/17 03:26:33;;;;;;;58.40;23.37;;;12.10;99.90;;;;;;5054282;28;20480;-62
2021/08/17 03:29:00;;;;;;;62.20;23.43;;;12.10;99.90;;;;;;5054209;28;20809;-62
2021/08/17 03:31:27;;;;;;;56.77;24.43;;;12.10;99.90;;;;;;5054106;28;20455;-62
2021/08/17 03:33:53;;;;;;;58.83;24.50;;;12.10;99.90;;;;;;5054027;28;20477;-62
2021/08/17 03:36:20;;;;;;;59.00;24.90;;;12.00;99.90;;;;;;5053910;28;20956;-61
2021/08/17 03:38:47;;;;;;;57.67;25.00;;;12.00;99.90;;;;;;5053628;28;20448;-62
2021/08/17 03:41:13;;;;;;;78.30;34.03;;;12.00;99.90;;;;;;5053885;28;20440;-61
2021/08/17 03:43:41;;;;;;;54.47;26.67;;;12.00;99.90;;;;;;5053934;28;20518;-61
2021/08/17 03:46:08;;;;;;;60.80;25.70;;;12.00;99.90;;;;;;5053912;28;20989;-62
2021/08/17 03:48:35;;;;;;;69.73;29.40;;;12.00;99.90;;;;;;5053940;28;20452;-61
2021/08/17 03:51:02;;;;;;;56.53;24.60;;;12.00;99.90;;;;;;5053187;28;20803;-61
2021/08/17 03:53:29;;;;;;;83.87;25.67;;;11.90;99.90;;;;;;5053533;28;20451;-62
2021/08/17 03:55:55;;;;;;;51.60;23.93;;;11.90;99.90;;;;;;5053734;28;20459;-62
2021/08/17 03:58:22;;;;;;;54.90;25.47;;;11.90;99.90;;;;;;5053577;28;20448;-61
2021/08/17 04:00:51;;;;;;;51.17;22.10;;;12.00;99.90;;;;;;5053750;28;20440;-62
2021/08/17 04:03:17;;;;;;;64.80;26.87;;;12.00;99.90;;;;;;5052929;28;20444;-60
2021/08/17 04:05:44;;;;;;;61.00;26.70;;;12.00;99.90;;;;;;5053526;28;20455;-61
2021/08/17 04:08:11;;;;;;;61.10;25.40;;;12.00;99.90;;;;;;5053225;28;20444;-62
2021/08/17 04:10:39;;;;;;;67.70;30.93;;;12.00;99.90;;;;;;5053031;28;20458;-62
2021/08/17 04:13:08;;;;;;;69.07;26.93;;;12.00;99.90;;;;;;5052530;28;20513;-61
2021/08/17 04:15:35;;;;;;;67.67;27.40;;;12.10;99.90;;;;;;5053069;28;20476;-61
2021/08/17 04:18:03;;;;;;;60.00;25.20;;;12.10;99.90;;;;;;5053102;28;20447;-60
2021/08/17 04:20:32;;;;;;;57.00;25.40;;;12.10;99.90;;;;;;5053219;28;20451;-61
2021/08/17 04:22:59;;;;;;;67.60;27.33;;;12.20;99.90;;;;;;5053225;28;20448;-61
2021/08/17 04:25:26;;;;;;;71.93;27.43;;;12.20;99.90;;;;;;5052894;28;20507;-61
2021/08/17 04:27:53;;;;;;;60.50;26.33;;;12.20;99.90;;;;;;5053036;28;20487;-62
2021/08/17 04:30:19;;;;;;;61.83;25.30;;;12.20;99.90;;;;;;5053157;28;20805;-60
2021/08/17 04:32:46;;;;;;;60.83;25.77;;;12.30;99.90;;;;;;5052835;28;20475;-61
2021/08/17 04:35:15;;;;;;;73.83;28.00;;;12.30;99.90;;;;;;5052614;28;20467;-61
2021/08/17 04:37:42;;;;;;;59.93;26.00;;;12.40;99.90;;;;;;5052935;28;20444;-61
2021/08/17 04:40:11;;;;;;;65.03;25.53;;;12.40;99.90;;;;;;5052857;28;20444;-61
2021/08/17 04:42:38;;;;;;;63.80;24.47;;;12.40;99.90;;;;;;5050633;28;20445;-61
2021/08/17 04:45:09;;;;;;;63.40;24.80;;;12.50;99.90;;;;;;5039092;28;20556;-60
2021/08/17 04:47:43;;;;;;;54.90;29.57;;;12.50;99.90;;;;;;5043019;28;20486;-60
2021/08/17 04:50:10;;;;;;;58.03;26.10;;;12.50;99.90;;;;;;5052125;28;20455;-57
2021/08/17 04:52:38;;;;;;;51.03;24.13;;;12.50;99.90;;;;;;5051031;28;20459;-61
2021/08/17 04:55:05;;;;;;;49.60;24.30;;;12.50;99.90;;;;;;5052451;28;20468;-61
2021/08/17 04:57:32;;;;;;;68.60;28.10;;;12.60;99.90;;;;;;5052486;28;20444;-60
2021/08/17 04:59:59;;;;;;;64.50;28.80;;;12.60;99.90;;;;;;5052530;28;20452;-60
2021/08/17 05:02:25;;;;;;;56.97;23.90;;;12.60;99.90;;;;;;5052328;28;20444;-61
2021/08/17 05:04:52;;;;;;;58.87;26.53;;;12.70;99.90;;;;;;5052411;28;20964;-60
2021/08/17 05:07:19;;;;;;;52.07;25.50;;;12.70;99.90;;;;;;5052332;28;20996;-60
2021/08/17 05:09:47;;;;;;;59.13;26.33;;;12.80;99.90;;;;;;5052398;28;20455;-62
2021/08/17 05:12:13;;;;;;;56.83;24.70;;;12.80;99.90;;;;;;5052117;28;20941;-60
2021/08/17 05:14:40;;;;;;;56.07;24.60;;;12.80;99.90;;;;;;5052744;28;20811;-62
2021/08/17 05:17:07;;;;;;;52.07;24.00;;;12.90;99.90;;;;;;5052242;28;20797;-63
2021/08/17 05:19:33;;;;;;;52.03;25.57;;;12.90;99.90;;;;;;5052387;28;20451;-61
2021/08/17 05:22:00;;;;;;;45.07;22.20;;;13.00;99.90;;;;;;5051806;28;20478;-61
2021/08/17 05:24:26;;;;;;;58.57;26.87;;;13.00;99.90;;;;;;5051968;28;20480;-62
2021/08/17 05:26:54;;;;;;;53.23;24.17;;;13.10;99.90;;;;;;5052072;28;20476;-61
2021/08/17 05:29:21;;;;;;;48.63;21.97;;;13.10;99.90;;;;;;5052280;28;20440;-62
2021/08/17 05:31:48;;;;;;;52.40;24.93;;;13.10;99.90;;;;;;5051795;28;20444;-60
2021/08/17 05:34:14;;;;;;;50.00;24.40;;;13.10;99.90;;;;;;5051399;28;20468;-62
2021/08/17 05:36:41;;;;;;;53.30;26.00;;;13.20;99.90;;;;;;5051909;28;21437;-62
2021/08/17 05:39:08;;;;;;;44.07;22.73;;;13.20;99.90;;;;;;5051788;28;20467;-62
2021/08/17 05:41:34;;;;;;;42.43;21.30;;;13.20;99.90;;;;;;5051678;28;20448;-63
2021/08/17 05:44:02;;;;;;;43.70;25.07;;;13.30;99.90;;;;;;5051841;28;20478;-60
2021/08/17 05:46:29;;;;;;;47.17;24.77;;;13.40;99.90;;;;;;5051770;28;20440;-61
2021/08/17 05:48:56;;;;;;;43.87;25.00;;;13.50;99.90;;;;;;5051833;28;20819;-61
2021/08/17 05:51:23;;;;;;;43.53;23.70;;;13.60;99.90;;;;;;5051553;28;20471;-62
2021/08/17 05:53:49;;;;;;;44.30;22.83;;;13.80;99.90;;;;;;5051719;28;20471;-62
2021/08/17 05:56:16;;;;;;;49.43;28.47;;;13.80;99.90;;;;;;5051839;28;20466;-62
2021/08/17 05:58:43;;;;;;;48.77;25.60;;;13.90;99.90;;;;;;5051711;28;20444;-61
2021/08/17 06:01:11;;;;;;;46.13;25.43;;;13.90;99.90;;;;;;5051575;28;20456;-62
2021/08/17 06:03:37;;;;;;;40.00;24.43;;;14.00;99.90;;;;;;5051505;28;20472;-61
2021/08/17 06:06:05;;;;;;;43.70;25.10;;;14.10;99.90;;;;;;5051607;28;20436;-62
2021/08/17 06:08:32;;;;;;;43.80;24.57;;;14.10;99.90;;;;;;5051423;28;20868;-60
2021/08/17 06:10:59;;;;;;;43.90;23.27;;;14.30;99.90;;;;;;5051443;28;20932;-62
2021/08/17 06:13:27;;;;;;;38.80;24.23;;;14.60;99.90;;;;;;5051216;28;20460;-62
2021/08/17 06:15:53;;;;;;;43.87;26.27;;;14.80;99.90;;;;;;5051662;28;20860;-61
2021/08/17 06:18:22;;;;;;;45.90;27.27;;;14.90;99.90;;;;;;5051505;28;20448;-62
2021/08/17 06:20:48;;;;;;;36.53;25.87;;;14.90;99.90;;;;;;5051679;28;20447;-56
2021/08/17 06:23:15;;;;;;;38.33;27.20;;;15.00;99.90;;;;;;5051354;28;20440;-62
2021/08/17 06:25:42;;;;;;;38.53;26.20;;;15.20;99.90;;;;;;5051285;28;20498;-55
2021/08/17 06:28:10;;;;;;;37.87;25.70;;;15.40;99.90;;;;;;5051285;28;20488;-59
2021/08/17 06:30:37;;;;;;;40.00;25.93;;;15.70;99.90;;;;;;5051380;28;20447;-55
2021/08/17 06:33:04;;;;;;;31.37;25.23;;;16.00;99.90;;;;;;5051163;28;20443;-58
2021/08/17 06:35:33;;;;;;;34.13;25.30;;;16.20;99.90;;;;;;5051039;28;20964;-60
2021/08/17 06:38:00;;;;;;;36.77;26.43;;;16.40;99.90;;;;;;5051305;28;20463;-59
2021/08/17 06:40:27;;;;;;;39.00;26.67;;;16.40;99.90;;;;;;5051233;28;20455;-55
2021/08/17 06:42:54;;;;;;;33.07;26.30;;;16.40;99.90;;;;;;5051099;28;20444;-60
2021/08/17 06:45:22;;;;;;;38.43;28.30;;;16.50;99.90;;;;;;5051568;28;20551;-58
2021/08/17 06:47:50;;;;;;;32.17;26.13;;;16.30;99.90;;;;;;5055059;28;20475;-58
2021/08/17 06:50:18;;;;;;;29.07;23.90;;;16.50;99.90;;;;;;5055002;28;20921;-60
2021/08/17 06:52:46;;;;;;;34.37;27.43;;;16.50;99.90;;;;;;5054716;28;20447;-60
2021/08/17 06:55:13;;;;;;;41.40;28.93;;;16.60;99.90;;;;;;5054921;28;20468;-58
2021/08/17 06:57:40;;;;;;;31.07;25.43;;;16.50;99.90;;;;;;5054893;28;20459;-57
2021/08/17 07:00:09;;;;;;;35.43;29.47;;;16.50;99.90;;;;;;5055068;28;20440;-56
2021/08/17 07:02:37;;;;;;;39.80;27.97;;;16.60;99.90;;;;;;5054612;28;20830;-58
2021/08/17 07:05:05;;;;;;;33.83;28.60;;;16.50;99.90;;;;;;5054908;28;20464;-58
2021/08/17 07:07:32;;;;;;;35.07;26.83;;;16.50;99.90;;;;;;5054709;28;20843;-57
2021/08/17 07:10:00;;;;;;;30.73;27.03;;;16.50;99.90;;;;;;5054738;28;20820;-57
2021/08/17 07:12:27;;;;;;;32.47;28.03;;;16.60;99.90;;;;;;5054407;28;20448;-60
2021/08/17 07:14:54;;;;;;;31.00;25.90;;;16.80;99.90;;;;;;5054623;28;20472;-59
2021/08/17 07:17:21;;;;;;;30.90;27.60;;;17.00;99.90;;;;;;5054461;28;20436;-60
2021/08/17 07:19:47;;;;;;;33.90;29.20;;;17.30;99.90;;;;;;5054507;28;20956;-58
2021/08/17 07:22:14;;;;;;;31.10;27.00;;;17.50;99.90;;;;;;5054210;28;20451;-57
2021/08/17 07:24:41;;;;;;;31.20;26.87;;;17.50;99.90;;;;;;5054278;28;20460;-57
2021/08/17 07:27:09;;;;;;;29.80;26.87;;;17.70;99.90;;;;;;5054221;28;20451;-59
2021/08/17 07:29:35;;;;;;;29.27;26.17;;;17.80;99.90;;;;;;5054282;28;20467;-59
2021/08/17 07:32:02;;;;;;;31.80;28.27;;;18.00;99.90;;;;;;5053909;28;20444;-59
2021/08/17 07:34:29;;;;;;;30.10;26.97;;;18.10;99.90;;;;;;5054147;28;20468;-58
2021/08/17 07:36:56;;;;;;;34.20;29.37;;;17.90;99.90;;;;;;5054133;28;20941;-59
2021/08/17 07:39:22;;;;;;;32.70;27.60;;;17.80;99.90;;;;;;5054094;28;20821;-58
2021/08/17 07:41:52;;;;;;;33.77;27.40;;;17.60;99.90;;;;;;5053813;28;20466;-59
2021/08/17 07:44:20;;;;;;;28.17;25.30;;;17.40;99.90;;;;;;5053910;28;20892;-59
2021/08/17 07:46:46;;;;;;;31.33;28.07;;;17.50;99.90;;;;;;5054037;28;20447;-57
2021/08/17 07:49:13;;;;;;;30.03;26.80;;;17.50;99.90;;;;;;5053874;28;20480;-57
2021/08/17 07:51:40;;;;;;;43.03;28.63;;;17.60;99.90;;;;;;5053716;28;20452;-55
2021/08/17 07:54:07;;;;;;;32.87;27.73;;;17.70;99.90;;;;;;5053752;28;20467;-59
2021/08/17 07:56:33;;;;;;;31.07;27.93;;;17.90;99.90;;;;;;5053748;28;20471;-54
2021/08/17 07:59:00;;;;;;;35.13;31.63;;;18.10;99.90;;;;;;5053048;28;20455;-58
2021/08/17 08:01:28;;;;;;;32.90;29.30;;;18.40;99.90;;;;;;5053409;28;20547;-61
2021/08/17 08:03:56;;;;;;;32.17;28.70;;;18.60;99.90;;;;;;5053427;28;20471;-57
2021/08/17 08:06:22;;;;;;;39.17;32.80;;;18.60;99.90;;;;;;5053438;28;20448;-54
2021/08/17 08:08:49;;;;;;;32.73;29.40;;;18.60;99.90;;;;;;5053298;28;20487;-58
2021/08/17 08:11:16;;;;;;;32.93;29.87;;;18.60;99.90;;;;;;5053443;28;20452;-57
2021/08/17 08:13:43;;;;;;;35.00;31.40;;;18.60;99.90;;;;;;5053291;28;20566;-57
2021/08/17 08:16:09;;;;;;;34.33;30.70;;;18.60;99.90;;;;;;5053288;28;20440;-61
2021/08/17 08:18:37;;;;;;;32.70;29.40;;;18.60;99.90;;;;;;5053497;28;20436;-58
2021/08/17 08:21:04;;;;;;;33.20;29.83;;;18.80;99.90;;;;;;5052921;28;20812;-57
2021/08/17 08:23:31;;;;;;;33.17;29.60;;;18.80;99.90;;;;;;5053200;28;20444;-57
2021/08/17 08:25:57;;;;;;;33.10;30.03;;;19.00;99.90;;;;;;5053185;28;20441;-57
2021/08/17 08:28:24;;;;;;;32.63;29.27;;;19.00;99.90;;;;;;5053152;28;20833;-59
2021/08/17 08:30:51;;;;;;;31.10;27.90;;;19.20;99.90;;;;;;5053123;28;20455;-59
2021/08/17 08:33:18;;;;;;;31.90;28.73;;;19.40;99.90;;;;;;5052763;28;20470;-62
2021/08/17 08:35:46;;;;;;;32.70;29.70;;;19.40;99.90;;;;;;5053107;28;20795;-60
2021/08/17 08:38:12;;;;;;;30.13;27.47;;;19.40;99.90;;;;;;5053109;28;20436;-60
2021/08/17 08:40:39;;;;;;;31.13;28.43;;;19.50;99.90;;;;;;5053031;28;20448;-57
2021/08/17 08:43:06;;;;;;;33.77;30.00;;;19.80;99.90;;;;;;5052748;28;20443;-59
2021/08/17 08:45:33;;;;;;;30.03;27.53;;;19.80;99.90;;;;;;5052826;28;20965;-59
2021/08/17 08:48:00;;;;;;;31.40;28.47;;;19.70;99.90;;;;;;5052647;28;20475;-57
2021/08/17 08:50:30;;;;;;;31.17;28.10;;;19.70;99.90;;;;;;5052701;28;20452;-60
2021/08/17 08:52:59;;;;;;;29.73;27.03;;;19.80;99.90;;;;;;5052640;28;20441;-55
2021/08/17 08:55:26;;;;;;;29.37;26.87;;;20.00;99.90;;;;;;5052745;28;20476;-61
2021/08/17 08:57:53;;;;;;;31.80;28.60;;;20.80;99.90;;;;;;5052668;28;20447;-53
2021/08/17 09:00:20;;;;;;;30.63;27.87;;;20.70;99.90;;;;;;5052816;28;20531;-54
2021/08/17 09:02:50;;;;;;;29.50;27.07;;;20.70;99.90;;;;;;5052376;28;20470;-53
2021/08/17 09:05:18;;;;;;;28.80;26.37;;;20.70;99.90;;;;;;5052432;28;20813;-54
2021/08/17 09:07:47;;;;;;;29.23;26.70;;;20.60;99.90;;;;;;5052367;28;21230;-55
2021/08/17 09:10:17;;;;;;;30.77;28.10;;;20.40;99.90;;;;;;5051396;28;20479;-61
2021/08/17 09:12:45;;;;;;;28.47;25.87;;;20.50;99.90;;;;;;5052388;28;20448;-58
2021/08/17 09:15:16;;;;;;;30.80;28.10;;;20.90;99.90;;;;;;5052286;28;20482;-56
2021/08/17 09:17:44;;;;;;;28.37;26.07;;;21.30;99.90;;;;;;5052492;28;20441;-53
2021/08/17 09:20:15;;;;;;;30.70;27.83;;;21.30;99.90;;;;;;5052043;28;20451;-55
2021/08/17 09:22:42;;;;;;;28.30;25.90;;;20.90;99.90;;;;;;5052132;28;20448;-56
2021/08/17 09:25:10;;;;;;;26.90;24.50;;;20.70;99.90;;;;;;5052074;28;20530;-54
2021/08/17 09:27:39;;;;;;;30.27;27.87;;;20.60;99.90;;;;;;5051946;28;20940;-61
2021/08/17 09:30:09;;;;;;;28.23;26.03;;;20.80;99.90;;;;;;5052075;28;20448;-57
2021/08/17 09:32:50;;;;;;;29.33;26.90;;;21.00;99.90;;;;;;5051869;28;20808;-54
2021/08/17 09:35:19;;;;;;;27.67;25.63;;;21.00;99.90;;;;;;5051889;28;20483;-56
2021/08/17 09:37:46;;;;;;;27.70;25.50;;;20.90;99.90;;;;;;5052063;28;20444;-53
2021/08/17 09:40:15;;;;;;;27.87;25.47;;;20.70;99.90;;;;;;5052089;28;20447;-53
2021/08/17 09:42:43;;;;;;;27.77;25.17;;;20.40;99.90;;;;;;5051607;28;20453;-57
2021/08/17 09:45:14;;;;;;;29.90;27.33;;;20.60;99.90;;;;;;5051710;28;20479;-58
2021/08/17 09:47:42;;;;;;;30.43;27.87;;;20.60;99.90;;;;;;5051766;28;20872;-56
2021/08/17 09:50:21;;;;;;;28.13;25.93;;;20.50;99.90;;;;;;5051758;28;20459;-58
2021/08/17 09:52:49;;;;;;;30.90;27.80;;;20.40;99.90;;;;;;5051442;28;20450;-58
2021/08/17 09:55:18;;;;;;;29.83;27.40;;;20.40;99.90;;;;;;5051634;28;21033;-60
2021/08/17 09:57:47;;;;;;;27.70;25.20;;;20.20;99.90;;;;;;5051684;28;20451;-60
2021/08/17 10:00:17;;;;;;;30.50;27.87;;;20.30;99.90;;;;;;5051734;28;20448;-59
2021/08/17 10:02:47;;;;;;;31.57;29.00;;;20.30;99.90;;;;;;5051458;28;20459;-63
2021/08/17 10:05:19;;;;;;;31.80;29.23;;;20.10;99.90;;;;;;5051739;28;20463;-61
2021/08/17 10:07:46;;;;;;;31.77;28.90;;;20.30;99.90;;;;;;5051717;28;20444;-60
2021/08/17 10:10:13;;;;;;;30.60;28.13;;;20.20;99.90;;;;;;5051557;28;20815;-62
2021/08/17 10:12:40;;;;;;;28.03;25.83;;;20.10;99.90;;;;;;5051350;28;20444;-59
2021/08/17 10:15:10;;;;;;;29.97;27.37;;;20.20;99.90;;;;;;5050510;28;20817;-59
2021/08/17 10:17:36;;;;;;;28.00;25.77;;;20.30;99.90;;;;;;5051565;28;20449;-60
2021/08/17 10:20:05;;;;;;;30.27;27.90;;;20.60;99.90;;;;;;5051387;28;20444;-58
2021/08/17 10:22:32;;;;;;;29.40;26.77;;;20.60;99.90;;;;;;5055587;28;20444;-61
2021/08/17 10:25:10;;;;;;;30.57;28.00;;;20.60;99.90;;;;;;5055430;28;20497;-60
2021/08/17 10:27:37;;;;;;;29.30;26.50;;;20.50;99.90;;;;;;5055165;28;20448;-62
2021/08/17 10:30:16;;;;;;;29.07;26.67;;;20.40;99.90;;;;;;5055311;28;20476;-61
2021/08/17 10:32:53;;;;;;;28.23;25.93;;;20.50;99.90;;;;;;5054872;28;20447;-59
2021/08/17 10:35:55;;;;;;;27.87;25.37;;;20.70;99.90;;;;;;5055280;28;20472;-59
2021/08/17 10:38:37;;;;;;;28.03;26.00;;;20.40;99.90;;;;;;5054985;28;20510;-59
2021/08/17 10:41:06;;;;;;;27.90;25.90;;;20.30;99.90;;;;;;5054978;28;20442;-61
2021/08/17 10:44:15;;;;;;;29.27;27.03;;;20.10;99.90;;;;;;5055207;28;20447;-61
2021/08/17 10:47:05;;;;;;;30.37;27.67;;;20.40;99.90;;;;;;5054571;28;20891;-62
2021/08/17 10:49:49;;;;;;;28.10;25.80;;;20.50;99.90;;;;;;5054978;28;20570;-61
2021/08/17 10:52:35;;;;;;;28.70;26.67;;;20.60;99.90;;;;;;5051250;28;20455;-61
2021/08/17 10:55:23;;;;;;;28.97;26.60;;;20.60;99.90;;;;;;5042138;28;20475;-61
2021/08/17 10:57:52;;;;;;;27.00;24.80;;;20.60;99.90;;;;;;5054899;28;20444;-61
2021/08/17 11:00:45;;;;;;;28.07;25.83;;;20.40;99.90;;;;;;5054881;28;20793;-59
2021/08/17 11:03:13;;;;;;;27.43;25.47;;;20.00;99.90;;;;;;5054453;28;20485;-62
2021/08/17 11:05:50;;;;;;;28.60;26.43;;;19.80;99.90;;;;;;5054785;28;20460;-61
2021/08/17 11:08:40;;;;;;;28.00;26.00;;;19.80;99.90;;;;;;5054613;28;20531;-61
2021/08/17 11:11:19;;;;;;;28.70;26.50;;;19.90;99.90;;;;;;5054533;28;20440;-62
2021/08/17 11:14:09;;;;;;;27.23;25.53;;;19.90;99.90;;;;;;5079571;22;20468;-64
2021/08/17 11:16:42;;;;;;;27.80;25.60;;;19.70;99.90;;;;;;5052893;28;20471;-64
2021/08/17 11:19:11;;;;;;;27.33;25.37;;;19.60;99.90;;;;;;5054367;28;20493;-64
2021/08/17 11:21:39;;;;;;;27.17;25.10;;;19.30;99.90;;;;;;5054102;28;20924;-63
2021/08/17 11:24:08;;;;;;;27.67;25.77;;;19.10;99.90;;;;;;5054139;28;20833;-62
2021/08/17 11:26:35;;;;;;;26.07;24.30;;;18.90;99.90;;;;;;5054113;28;20448;-63
2021/08/17 11:29:02;;;;;;;25.03;23.17;;;18.70;99.90;;;;;;5053932;28;20472;-62
2021/08/17 11:31:29;;;;;;;24.00;22.00;;;18.60;99.90;;;;;;5053670;28;20447;-63
2021/08/17 11:34:18;;;;;;;23.77;22.17;;;18.50;99.90;;;;;;5053108;28;20818;-63
2021/08/17 11:36:57;;;;;;;24.47;22.67;;;18.40;99.90;;;;;;5054005;28;20451;-62
2021/08/17 11:39:26;;;;;;;26.57;24.83;;;18.20;99.90;;;;;;5053880;28;20494;-63
2021/08/17 11:41:54;;;;;;;24.23;22.73;;;18.10;99.90;;;;;;5053773;28;20451;-63
2021/08/17 11:44:20;;;;;;;23.13;21.63;;;18.20;99.90;;;;;;5053714;28;20464;-63
2021/08/17 11:46:48;;;;;;;23.40;21.90;;;18.20;99.90;;;;;;5053881;28;20537;-64
2021/08/17 11:49:37;;;;;;;21.63;20.33;;;18.40;99.90;;;;;;5053780;28;20472;-64
2021/08/17 11:52:07;;;;;;;21.87;20.33;;;18.50;99.90;;;;;;5049173;28;20505;-62
2021/08/17 11:54:34;;;;;;;23.10;21.57;;;18.60;99.90;;;;;;5053899;28;20480;-62
2021/08/17 11:57:03;;;;;;;21.57;20.10;;;18.60;99.90;;;;;;5053919;28;20448;-63
2021/08/17 11:59:42;;;;;;;21.53;20.23;;;18.40;99.90;;;;;;5053868;28;20475;-63
2021/08/17 12:02:09;;;;;;;22.20;20.40;;;18.10;99.90;;;;;;5053346;28;20447;-62
2021/08/17 12:04:38;;;;;;;20.63;19.33;;;17.90;99.90;;;;;;5053622;28;20456;-63
2021/08/17 12:07:13;;;;;;;22.57;21.27;;;17.80;99.90;;;;;;5053559;28;20509;-63
2021/08/17 12:09:41;;;;;;;21.43;20.20;;;17.70;99.90;;;;;;5053716;28;20475;-64
2021/08/17 12:12:11;;;;;;;23.57;21.77;;;17.70;99.90;;;;;;5053239;28;20444;-63
2021/08/17 12:14:37;;;;;;;22.40;20.90;;;17.60;99.90;;;;;;5053342;28;20895;-64
2021/08/17 12:17:05;;;;;;;23.47;22.07;;;17.60;99.90;;;;;;5053370;28;20942;-62
2021/08/17 12:19:32;;;;;;;23.07;21.60;;;17.40;99.90;;;;;;5053523;28;20443;-62
2021/08/17 12:22:01;;;;;;;22.40;21.00;;;17.40;99.90;;;;;;5053169;28;20805;-63
2021/08/17 12:24:30;;;;;;;22.83;21.37;;;17.40;99.90;;;;;;5053250;28;20465;-62
2021/08/17 12:26:58;;;;;;;23.67;21.63;;;17.40;99.90;;;;;;5053147;28;20448;-64
2021/08/17 12:29:25;;;;;;;23.90;22.37;;;17.50;99.90;;;;;;5053047;28;20480;-63
2021/08/17 12:31:53;;;;;;;22.47;21.00;;;17.60;99.90;;;;;;5052963;28;20448;-64
2021/08/17 12:34:23;;;;;;;22.43;20.80;;;17.60;99.90;;;;;;5053067;28;20475;-63